Time;durP1;ratioP1;P1;durP2;ratioP2;P2;SDS_P1;SDS_P2;PMS_P1;PMS_P2;Temp;Humidity;BMP_temperature;BMP_pressure;BME280_temperature;BME280_humidity;BME280_pressure;Samples;Min_cycle;Max_cycle;Signal;HPM_P1;HPM_P2
2022/05/04 00:01:58;;;;;;;11.15;8.40;;;;;;;17.54;62.13;99828.50;4982359;28;20065;-79
2022/05/04 00:04:25;;;;;;;10.25;8.32;;;;;;;17.52;62.40;99822.47;4969692;28;20048;-79
2022/05/04 00:06:51;;;;;;;9.95;8.30;;;;;;;17.54;62.35;99825.81;4966213;28;20540;-79
2022/05/04 00:09:18;;;;;;;11.63;8.10;;;;;;;17.51;62.51;99817.31;4972965;28;20058;-79
2022/05/04 00:11:45;;;;;;;10.23;8.10;;;;;;;17.49;62.14;99819.31;4964702;28;20104;-79
2022/05/04 00:14:12;;;;;;;10.45;8.80;;;;;;;17.47;61.80;99814.13;4963340;28;20046;-79
2022/05/04 00:16:39;;;;;;;9.75;8.13;;;;;;;17.49;62.39;99817.47;5001216;28;20038;-79
2022/05/04 00:19:06;;;;;;;12.05;9.40;;;;;;;17.47;62.33;99811.44;4984115;28;20046;-79
2022/05/04 00:21:33;;;;;;;12.95;8.77;;;;;;;17.47;62.64;99811.44;4987619;28;20053;-79
2022/05/04 00:23:59;;;;;;;12.30;8.82;;;;;;;17.46;62.57;99815.16;4982615;28;20057;-79
2022/05/04 00:26:26;;;;;;;11.18;8.98;;;;;;;17.44;62.81;99814.50;4986555;28;20061;-79
2022/05/04 00:28:53;;;;;;;11.52;8.77;;;;;;;17.44;62.68;99808.28;4952492;28;20057;-79
2022/05/04 00:31:20;;;;;;;11.38;9.55;;;;;;;17.42;62.96;99811.16;4966938;28;20474;-79
2022/05/04 00:33:47;;;;;;;14.23;9.45;;;;;;;17.39;63.00;99808.00;4961390;28;20414;-79
2022/05/04 00:36:14;;;;;;;10.85;8.93;;;;;;;17.42;63.03;99813.00;5001073;28;20038;-79
2022/05/04 00:38:40;;;;;;;13.73;9.73;;;;;;;17.42;62.82;99811.16;4981910;28;20062;-79
2022/05/04 00:41:08;;;;;;;11.23;9.13;;;;;;;17.38;63.00;99823.28;5000747;28;20502;-79
2022/05/04 00:43:35;;;;;;;8.75;7.75;;;;;;;17.39;62.97;99822.25;4987368;28;20104;-79
2022/05/04 00:46:01;;;;;;;11.48;8.60;;;;;;;17.43;62.64;99825.41;4970920;28;20050;-79
2022/05/04 00:48:28;;;;;;;12.13;7.72;;;;;;;17.43;62.69;99833.44;4985257;28;20155;-79
2022/05/04 00:50:55;;;;;;;14.07;8.45;;;;;;;17.41;62.71;99832.81;4984104;28;20486;-79
2022/05/04 00:53:22;;;;;;;9.85;7.28;;;;;;;17.42;62.30;99835.31;4983134;28;20042;-79
2022/05/04 00:55:49;;;;;;;10.90;7.80;;;;;;;17.40;62.66;99831.13;4968883;28;20045;-79
2022/05/04 01:01:02;;;;;;;12.18;7.22;;;;;;;17.40;61.86;99831.13;4913817;28;20447;-79
2022/05/04 01:03:30;;;;;;;11.48;6.95;;;;;;;17.39;61.82;99834.84;4950000;28;20046;-79
2022/05/04 01:05:57;;;;;;;8.05;6.47;;;;;;;17.39;61.65;99834.84;4936381;28;20054;-79
2022/05/04 01:08:23;;;;;;;8.45;7.18;;;;;;;17.40;61.64;99837.34;4985042;28;20101;-79
2022/05/04 01:10:50;;;;;;;7.90;6.38;;;;;;;17.38;61.95;99843.91;4965999;28;20047;-79
2022/05/04 01:13:21;;;;;;;8.68;6.63;;;;;;;17.39;61.64;99848.28;4983922;28;20043;-79
2022/05/04 01:15:49;;;;;;;13.55;7.50;;;;;;;17.38;61.87;99849.25;4983078;28;20042;-79
2022/05/04 01:18:16;;;;;;;10.50;7.55;;;;;;;17.34;62.12;99849.63;4966225;28;20047;-79
2022/05/04 01:20:43;;;;;;;13.38;7.35;;;;;;;17.28;62.13;99839.63;4964877;28;20375;-79
2022/05/04 01:23:10;;;;;;;8.38;7.30;;;;;;;17.22;62.29;99850.22;4984280;28;20077;-79
2022/05/04 01:25:37;;;;;;;10.38;7.30;;;;;;;17.18;62.68;99852.44;4970985;28;20054;-79
2022/05/04 01:28:04;;;;;;;10.35;6.63;;;;;;;17.16;62.64;99848.25;4984036;28;20367;-79
2022/05/04 01:30:32;;;;;;;9.75;7.05;;;;;;;17.12;62.52;99848.63;4949333;28;20049;-79
2022/05/04 01:33:01;;;;;;;9.35;6.95;;;;;;;17.10;62.69;99847.97;4964566;28;20102;-79
2022/05/04 01:35:27;;;;;;;10.20;7.03;;;;;;;17.07;62.72;99852.84;4962684;28;20479;-79
2022/05/04 01:37:54;;;;;;;7.90;6.45;;;;;;;17.07;63.06;99856.38;4947087;28;20044;-79
2022/05/04 01:40:21;;;;;;;9.32;7.47;;;;;;;17.06;63.00;99856.53;4956488;28;20099;-79
2022/05/04 01:42:50;;;;;;;13.80;8.38;;;;;;;17.05;62.93;99860.25;4957423;28;20042;-79
2022/05/04 01:45:17;;;;;;;9.85;7.07;;;;;;;17.04;63.25;99864.75;4955083;28;20042;-79
2022/05/04 01:47:48;;;;;;;12.23;7.57;;;;;;;17.01;63.28;99854.38;4984215;28;20705;-79
2022/05/04 01:50:15;;;;;;;13.98;7.25;;;;;;;17.00;63.24;99852.72;4969911;28;20362;-79
2022/05/04 01:52:42;;;;;;;9.07;7.53;;;;;;;16.99;63.09;99850.19;4985938;28;20045;-79
2022/05/04 01:55:09;;;;;;;12.82;7.10;;;;;;;16.96;63.38;99853.25;4968351;28;20046;-79
2022/05/04 01:57:36;;;;;;;9.13;8.05;;;;;;;16.94;63.46;99848.03;5004775;28;20054;-79
2022/05/04 02:00:05;;;;;;;18.30;7.93;;;;;;;16.95;63.39;99843.53;4984606;28;20042;-79
2022/05/04 02:02:40;;;;;;;11.93;8.50;;;;;;;16.91;63.64;99843.88;4989205;28;20056;-79
2022/05/04 02:05:08;;;;;;;12.13;8.15;;;;;;;16.88;63.20;99846.09;4966519;28;20054;-79
2022/05/04 02:07:35;;;;;;;12.80;8.65;;;;;;;16.86;63.43;99842.75;4969544;28;20053;-79
2022/05/04 02:10:05;;;;;;;11.98;8.90;;;;;;;16.82;63.46;99842.25;5001110;28;20433;-79
2022/05/04 02:12:34;;;;;;;13.40;7.80;;;;;;;16.83;63.46;99845.78;4983178;28;20109;-79
2022/05/04 02:15:01;;;;;;;10.75;8.70;;;;;;;16.81;63.30;99843.25;4970278;28;20055;-78
2022/05/04 02:17:28;;;;;;;11.68;8.45;;;;;;;16.84;63.47;99836.72;4950707;28;20101;-79
2022/05/04 02:19:55;;;;;;;10.10;8.55;;;;;;;16.80;63.48;99841.59;4965562;28;20075;-79
2022/05/04 02:22:22;;;;;;;11.10;8.55;;;;;;;16.81;63.44;99840.56;4986065;28;20080;-79
2022/05/04 02:24:49;;;;;;;11.25;8.73;;;;;;;16.80;63.58;99840.78;4970252;28;20097;-79
2022/05/04 02:27:15;;;;;;;16.52;10.02;;;;;;;16.76;63.50;99848.28;4969686;28;20678;-79
2022/05/04 02:29:42;;;;;;;15.35;11.13;;;;;;;16.72;63.69;99844.28;4982419;28;20054;-79
2022/05/04 02:32:09;;;;;;;18.58;10.05;;;;;;;16.72;63.66;99846.97;4986536;28;20049;-79
2022/05/04 02:37:54;;;;;;;12.18;9.35;;;;;;;16.71;63.49;99838.09;4985243;28;20474;-79
2022/05/04 02:40:08;;;;;;;11.77;8.77;;;;;;;16.70;63.66;99832.91;4952146;28;20559;-79
2022/05/04 02:42:36;;;;;;;11.45;8.63;;;;;;;16.68;63.95;99840.28;4988667;28;20374;-79
2022/05/04 02:45:04;;;;;;;10.63;8.77;;;;;;;16.66;63.68;99840.47;4952349;28;20383;-78
2022/05/04 02:47:31;;;;;;;10.20;8.70;;;;;;;16.67;63.53;99842.13;4959366;28;20641;-79
2022/05/04 02:49:58;;;;;;;12.55;9.43;;;;;;;16.65;63.66;99836.09;4989106;28;20074;-78
2022/05/04 02:52:24;;;;;;;17.20;9.40;;;;;;;16.64;63.76;99837.13;4986218;28;20118;-79
2022/05/04 02:54:51;;;;;;;13.32;9.70;;;;;;;16.61;63.68;99845.53;4970984;28;20046;-79
2022/05/04 02:57:18;;;;;;;12.85;9.27;;;;;;;16.61;63.70;99844.66;4987077;28;20057;-79
2022/05/04 02:59:45;;;;;;;13.63;9.95;;;;;;;16.59;63.73;99838.63;4983758;28;20045;-79
2022/05/04 03:02:26;;;;;;;10.70;8.77;;;;;;;16.58;63.81;99842.34;4971115;28;20054;-79
2022/05/04 03:04:58;;;;;;;14.95;9.40;;;;;;;16.55;63.95;99843.53;4970134;28;20104;-79
2022/05/04 03:07:26;;;;;;;13.05;9.88;;;;;;;16.54;64.01;99835.66;4960104;28;20042;-79
2022/05/04 03:09:56;;;;;;;12.40;9.18;;;;;;;16.52;64.20;99832.34;4984002;28;20061;-79
2022/05/04 03:12:23;;;;;;;14.80;10.07;;;;;;;16.53;64.04;99832.13;4965069;28;20444;-79
2022/05/04 03:14:50;;;;;;;16.38;10.15;;;;;;;16.53;64.04;99832.13;4947380;28;20053;-79
2022/05/04 03:17:19;;;;;;;14.70;9.68;;;;;;;16.51;63.98;99831.47;4967879;28;20200;-79
2022/05/04 03:19:46;;;;;;;13.60;9.80;;;;;;;16.50;64.14;99832.50;4990313;28;20050;-79
2022/05/04 03:22:15;;;;;;;15.68;10.40;;;;;;;16.45;64.26;99835.69;4999545;28;20038;-81
2022/05/04 03:24:44;;;;;;;15.35;10.00;;;;;;;16.44;64.18;99833.19;5000529;28;20094;-78
2022/05/04 03:27:12;;;;;;;13.32;9.50;;;;;;;16.44;64.04;99827.84;4985446;28;20043;-79
2022/05/04 03:29:38;;;;;;;13.98;10.27;;;;;;;16.42;64.38;99838.72;4984456;28;20046;-78
2022/05/04 03:32:06;;;;;;;15.95;10.18;;;;;;;16.41;64.14;99841.56;4990084;28;20057;-78
2022/05/04 03:34:32;;;;;;;12.70;9.90;;;;;;;16.41;64.33;99837.06;4981324;28;20046;-78
2022/05/04 03:36:59;;;;;;;13.10;9.75;;;;;;;16.41;64.07;99837.06;4967499;28;20108;-78
2022/05/04 03:39:27;;;;;;;13.55;9.85;;;;;;;16.39;64.34;99830.22;4977584;28;20058;-78
2022/05/04 03:41:55;;;;;;;13.07;8.93;;;;;;;16.36;64.13;99839.44;4983917;28;20132;-81
2022/05/04 03:44:22;;;;;;;16.23;9.95;;;;;;;16.38;64.26;99829.34;4983984;28;20101;-80
2022/05/04 03:46:50;;;;;;;14.35;11.02;;;;;;;16.37;64.28;99834.91;4987350;28;20042;-81
2022/05/04 03:49:18;;;;;;;14.63;10.65;;;;;;;16.35;64.36;99829.69;4980475;28;20057;-80
2022/05/04 03:51:45;;;;;;;11.80;10.15;;;;;;;16.35;64.31;99832.38;4983806;28;20049;-79
2022/05/04 03:54:12;;;;;;;12.55;10.10;;;;;;;16.33;64.44;99838.91;4987266;28;20046;-80
2022/05/04 03:56:39;;;;;;;13.38;9.85;;;;;;;16.32;64.55;99831.91;4986487;28;20047;-78
2022/05/04 03:59:07;;;;;;;15.30;11.48;;;;;;;16.31;64.40;99827.53;4999326;28;20042;-79
2022/05/04 04:01:34;;;;;;;14.70;11.35;;;;;;;16.29;64.32;99835.75;4982116;28;20237;-78
2022/05/04 04:04:00;;;;;;;20.08;12.73;;;;;;;16.28;64.33;99831.38;4953012;28;20046;-79
2022/05/04 04:06:27;;;;;;;15.68;11.10;;;;;;;16.25;64.51;99832.56;4985068;28;20050;-79
2022/05/04 04:08:54;;;;;;;14.45;11.15;;;;;;;16.22;64.84;99832.94;4978973;28;20097;-78
2022/05/04 04:11:21;;;;;;;14.75;10.75;;;;;;;16.21;64.76;99838.47;4984732;28;20390;-81
2022/05/04 04:13:48;;;;;;;14.40;10.02;;;;;;;16.19;64.73;99840.47;4972300;28;20054;-79
2022/05/04 04:16:15;;;;;;;14.10;11.23;;;;;;;16.20;64.83;99842.97;4979669;28;20042;-80
2022/05/04 04:18:42;;;;;;;12.60;10.27;;;;;;;16.18;64.52;99844.16;4982746;28;20097;-80
2022/05/04 04:23:54;;;;;;;18.65;11.00;;;;;;;16.09;64.91;99843.34;4976906;28;20042;-79
2022/05/04 04:26:21;;;;;;;18.92;10.88;;;;;;;16.06;64.89;99846.38;4965703;28;20039;-80
2022/05/04 04:28:48;;;;;;;19.92;11.13;;;;;;;16.05;64.91;99850.03;4983013;28;20046;-81
2022/05/04 04:31:15;;;;;;;18.33;10.98;;;;;;;16.03;65.06;99850.22;4967978;28;20046;-81
2022/05/04 04:33:41;;;;;;;18.48;11.10;;;;;;;16.03;65.00;99854.75;4981170;28;20054;-80
2022/05/04 04:36:09;;;;;;;19.73;10.63;;;;;;;16.01;64.96;99852.25;4984526;28;20045;-80
2022/05/04 04:38:38;;;;;;;13.77;10.43;;;;;;;16.02;65.21;99855.75;4985133;28;20046;-80
2022/05/04 04:41:05;;;;;;;17.08;11.50;;;;;;;16.02;65.04;99858.44;4983219;28;20043;-80
2022/05/04 04:43:31;;;;;;;20.75;11.90;;;;;;;16.01;65.10;99854.09;4988177;28;20057;-80
2022/05/04 04:45:58;;;;;;;17.48;11.95;;;;;;;16.03;64.81;99860.13;4977216;28;20042;-80
2022/05/04 04:48:25;;;;;;;17.73;12.07;;;;;;;16.01;64.86;99857.59;4997387;28;20042;-80
2022/05/04 04:50:52;;;;;;;15.05;11.38;;;;;;;15.99;64.91;99864.97;4987866;28;20050;-80
2022/05/04 04:53:25;;;;;;;17.13;12.00;;;;;;;16.00;65.14;99860.44;4985833;28;20039;-80
2022/05/04 04:55:51;;;;;;;18.60;12.80;;;;;;;15.97;65.15;99863.47;4959826;28;20050;-80
2022/05/04 04:58:18;;;;;;;20.65;12.65;;;;;;;16.00;65.38;99871.16;4948783;28;20375;-80
2022/05/04 05:00:45;;;;;;;22.52;13.65;;;;;;;15.98;65.44;99868.66;4976460;28;20623;-80
2022/05/04 05:03:16;;;;;;;21.10;13.52;;;;;;;15.95;65.43;99871.69;4985340;28;20062;-80
2022/05/04 05:05:43;;;;;;;16.27;12.25;;;;;;;15.95;65.53;99879.72;4982215;28;21274;-80
2022/05/04 05:08:11;;;;;;;17.70;12.70;;;;;;;15.98;65.62;99879.38;4987055;28;20494;-80
2022/05/04 05:10:38;;;;;;;23.23;13.65;;;;;;;15.99;65.45;99874.84;4983380;28;20052;-80
2022/05/04 05:13:05;;;;;;;19.27;13.40;;;;;;;15.97;65.66;99883.03;4949668;28;20057;-80
2022/05/04 05:18:22;;;;;;;21.17;13.82;;;;;;;15.97;65.73;99883.03;4956532;28;20038;-78
2022/05/04 05:20:49;;;;;;;21.27;13.45;;;;;;;16.00;66.00;99885.41;4970653;28;20124;-78
2022/05/04 05:23:22;;;;;;;19.27;12.70;;;;;;;16.01;65.46;99892.41;4987569;28;20042;-79
2022/05/04 05:25:49;;;;;;;20.17;12.32;;;;;;;16.03;65.85;99889.56;4956872;28;20045;-78
2022/05/04 05:28:16;;;;;;;20.48;13.02;;;;;;;16.04;65.80;99884.03;4969546;28;20057;-79
2022/05/04 05:30:43;;;;;;;17.38;13.40;;;;;;;16.07;65.94;99888.22;4987093;28;20038;-79
2022/05/04 05:33:09;;;;;;;22.05;14.00;;;;;;;16.06;65.94;99884.72;4967992;28;20057;-78
2022/05/04 05:35:36;;;;;;;19.95;14.23;;;;;;;16.08;66.03;99889.91;4971005;28;20627;-79
2022/05/04 05:38:03;;;;;;;18.95;13.68;;;;;;;16.06;66.17;99892.75;4966534;28;20050;-78
2022/05/04 05:40:30;;;;;;;20.73;14.23;;;;;;;16.05;65.90;99895.56;4982055;28;20152;-78
2022/05/04 05:42:57;;;;;;;18.67;13.43;;;;;;;16.04;66.45;99892.06;4986977;28;22272;-78
2022/05/04 05:45:23;;;;;;;23.55;14.77;;;;;;;16.04;66.07;99900.09;4983463;28;20106;-78
2022/05/04 05:47:51;;;;;;;21.33;14.38;;;;;;;16.05;66.14;99895.56;4983548;28;20437;-78
2022/05/04 05:50:18;;;;;;;21.27;14.68;;;;;;;16.02;66.24;99903.97;4987106;28;20046;-78
2022/05/04 05:52:44;;;;;;;21.58;14.98;;;;;;;16.05;66.38;99903.63;4987148;28;20056;-78
2022/05/04 05:55:11;;;;;;;22.42;14.50;;;;;;;16.05;66.66;99908.97;4985261;28;20113;-78
2022/05/04 05:57:39;;;;;;;18.95;12.93;;;;;;;16.06;66.50;99903.47;4987141;28;20046;-78
2022/05/04 06:00:07;;;;;;;22.52;13.80;;;;;;;16.08;66.60;99914.00;4985804;28;20049;-78
2022/05/04 06:02:39;;;;;;;18.33;12.95;;;;;;;16.11;66.40;99910.16;4999828;28;20049;-79
2022/05/04 06:05:06;;;;;;;23.45;13.13;;;;;;;16.09;66.38;99904.13;4966447;28;20050;-78
2022/05/04 06:07:33;;;;;;;23.35;14.20;;;;;;;16.09;66.64;99904.97;4984287;28;20406;-78
2022/05/04 06:10:00;;;;;;;19.10;13.60;;;;;;;16.08;66.33;99903.31;4987649;28;20073;-79
2022/05/04 06:12:27;;;;;;;17.23;12.70;;;;;;;16.05;66.48;99906.28;4955882;28;20046;-78
2022/05/04 06:14:53;;;;;;;19.73;13.88;;;;;;;16.05;66.57;99909.84;4961126;28;20055;-79
2022/05/04 06:17:20;;;;;;;20.15;14.18;;;;;;;16.07;66.40;99909.66;4985231;28;20058;-78
2022/05/04 06:19:47;;;;;;;18.88;14.50;;;;;;;16.12;66.79;99914.50;4987607;28;20552;-78
2022/05/04 06:22:15;;;;;;;20.77;14.60;;;;;;;16.16;67.06;99913.16;4980460;28;20054;-78
2022/05/04 06:24:41;;;;;;;20.30;14.43;;;;;;;16.21;67.05;99911.66;4984961;28;20050;-78
2022/05/04 06:27:08;;;;;;;17.63;14.60;;;;;;;16.30;66.74;99908.94;4964700;28;20049;-78
2022/05/04 06:35:14;;;;;;;22.45;13.90;;;;;;;16.46;67.02;99925.81;4997593;28;20054;-78
2022/05/04 06:37:40;;;;;;;20.65;14.35;;;;;;;16.45;66.84;99926.00;4983955;28;20050;-78
2022/05/04 06:40:08;;;;;;;21.50;14.98;;;;;;;16.45;66.65;99924.13;4982607;28;20377;-78
2022/05/04 06:42:35;;;;;;;19.27;13.57;;;;;;;16.46;66.63;99930.31;4968314;28;20043;-78
2022/05/04 06:45:02;;;;;;;21.15;14.65;;;;;;;16.48;66.36;99928.31;4966206;28;20057;-78
2022/05/04 06:47:29;;;;;;;22.35;15.68;;;;;;;16.49;66.71;99932.69;4986044;28;20042;-78
2022/05/04 06:49:56;;;;;;;20.42;14.38;;;;;;;16.48;66.17;99929.16;4993077;28;20084;-78
2022/05/04 06:52:26;;;;;;;23.25;15.73;;;;;;;16.49;66.73;99928.16;4985169;28;20066;-78
2022/05/04 06:54:53;;;;;;;19.77;14.80;;;;;;;16.53;66.25;99931.31;4975549;28;20073;-78
2022/05/04 06:57:20;;;;;;;19.55;14.95;;;;;;;16.61;66.64;99931.31;4984426;28;20042;-78
2022/05/04 06:59:47;;;;;;;25.55;16.25;;;;;;;16.62;66.78;99934.81;4989030;28;22771;-78
2022/05/04 07:02:14;;;;;;;25.15;15.52;;;;;;;16.59;66.41;99932.47;4968260;28;20043;-78
2022/05/04 07:04:41;;;;;;;19.60;14.57;;;;;;;16.66;66.82;99930.78;4983534;28;20082;-78
2022/05/04 07:07:08;;;;;;;23.27;16.52;;;;;;;16.65;66.52;99932.63;4987250;28;20072;-78
2022/05/04 07:09:35;;;;;;;27.30;17.13;;;;;;;16.71;66.39;99941.81;4986232;28;20042;-78
2022/05/04 07:12:02;;;;;;;27.10;16.48;;;;;;;16.70;66.17;99938.31;4982970;28;20050;-78
2022/05/04 07:14:29;;;;;;;23.42;17.00;;;;;;;16.64;66.11;99933.66;4953575;28;20076;-78
2022/05/04 07:16:56;;;;;;;32.55;16.73;;;;;;;16.66;65.91;99931.63;4997160;28;20478;-78
2022/05/04 07:19:22;;;;;;;25.70;16.73;;;;;;;16.76;66.24;99933.25;4983285;28;20046;-78
2022/05/04 07:21:49;;;;;;;26.52;17.25;;;;;;;16.69;66.33;99935.81;4987258;28;20398;-78
2022/05/04 07:24:16;;;;;;;23.00;16.88;;;;;;;16.76;66.04;99930.59;4975019;28;20049;-78
2022/05/04 07:26:43;;;;;;;24.52;16.60;;;;;;;16.74;65.98;99933.44;4965418;28;20498;-78
2022/05/04 07:29:10;;;;;;;23.38;16.65;;;;;;;16.73;66.20;99930.94;4983268;28;20054;-78
2022/05/04 07:31:41;;;;;;;28.70;16.90;;;;;;;16.75;66.44;99926.25;4985955;28;20053;-78
2022/05/04 07:34:08;;;;;;;25.40;17.23;;;;;;;16.75;66.44;99928.91;4968027;28;20561;-78
2022/05/04 07:36:35;;;;;;;29.33;18.63;;;;;;;16.78;66.45;99928.59;4983493;28;20060;-78
2022/05/04 07:39:01;;;;;;;28.00;18.88;;;;;;;16.76;66.34;99938.63;4985191;28;20039;-78
2022/05/04 07:44:13;;;;;;;23.55;17.80;;;;;;;16.77;66.56;99938.47;4971631;28;20407;-78
2022/05/04 07:46:41;;;;;;;29.42;19.35;;;;;;;16.79;66.52;99927.56;4996171;28;20054;-78
2022/05/04 07:49:08;;;;;;;25.85;17.80;;;;;;;16.82;66.37;99932.63;4982851;28;20126;-78
2022/05/04 07:51:35;;;;;;;27.63;17.00;;;;;;;16.87;66.67;99931.06;4983636;28;20034;-78
2022/05/04 07:54:02;;;;;;;30.30;17.88;;;;;;;16.95;66.54;99934.75;4984482;28;20368;-78
2022/05/04 07:56:28;;;;;;;32.85;18.42;;;;;;;17.01;66.52;99932.19;4947867;28;20046;-78
2022/05/04 07:58:55;;;;;;;30.23;19.42;;;;;;;17.01;66.48;99937.53;4969437;28;22632;-78
2022/05/04 08:04:16;;;;;;;27.52;19.05;;;;;;;17.08;67.07;99941.19;4980162;28;20042;-78
2022/05/04 08:06:44;;;;;;;32.78;20.92;;;;;;;17.11;67.87;99938.16;4983792;28;20057;-78
2022/05/04 08:09:11;;;;;;;29.73;18.92;;;;;;;17.12;67.59;99939.84;4967212;28;20034;-78
2022/05/04 08:11:38;;;;;;;26.40;18.50;;;;;;;17.16;67.52;99936.81;4987026;28;20034;-78
2022/05/04 08:14:05;;;;;;;35.92;20.65;;;;;;;17.25;67.91;99947.34;5000605;28;20607;-78
2022/05/04 08:16:32;;;;;;;32.95;20.65;;;;;;;17.27;67.84;99941.78;4982260;28;20379;-78
2022/05/04 08:19:00;;;;;;;32.33;20.33;;;;;;;17.32;67.64;99952.81;4983692;28;20097;-78
2022/05/04 08:21:27;;;;;;;27.55;18.10;;;;;;;17.23;67.63;99948.53;4968369;28;20050;-78
2022/05/04 08:23:54;;;;;;;25.08;17.75;;;;;;;17.29;67.14;99947.81;4985077;28;20061;-78
2022/05/04 08:26:22;;;;;;;22.27;17.00;;;;;;;17.30;67.36;99946.78;4980128;28;20053;-78
2022/05/04 08:28:50;;;;;;;29.30;18.83;;;;;;;17.29;67.48;99951.31;4982904;28;20073;-78
2022/05/04 08:31:21;;;;;;;23.77;17.63;;;;;;;17.29;67.77;99947.81;4985644;28;20073;-78
2022/05/04 08:33:49;;;;;;;27.52;17.85;;;;;;;17.32;67.45;99942.91;4984399;28;20034;-78
2022/05/04 08:36:17;;;;;;;28.70;18.85;;;;;;;17.35;67.46;99947.09;4987216;28;20481;-78
2022/05/04 08:38:44;;;;;;;29.67;19.02;;;;;;;17.45;66.87;99947.69;4965970;28;20051;-78
2022/05/04 08:41:10;;;;;;;30.58;19.10;;;;;;;17.39;67.15;99945.72;4941526;28;20060;-78
2022/05/04 08:43:39;;;;;;;26.58;17.98;;;;;;;17.38;67.49;99948.56;4973399;28;20347;-78
2022/05/04 08:46:08;;;;;;;27.83;19.67;;;;;;;17.39;67.05;99951.09;4969817;28;20508;-78
2022/05/04 08:48:35;;;;;;;31.48;18.27;;;;;;;17.41;66.95;99948.25;4980464;28;20486;-78
2022/05/04 08:51:05;;;;;;;27.48;18.55;;;;;;;17.35;66.97;99950.63;4966832;28;20765;-78
2022/05/04 08:53:32;;;;;;;24.58;17.63;;;;;;;17.33;66.79;99951.81;4994883;28;20481;-78
2022/05/04 08:55:59;;;;;;;28.77;18.25;;;;;;;17.34;66.96;99958.84;4963874;28;20047;-78
2022/05/04 08:58:39;;;;;;;27.40;18.38;;;;;;;17.32;66.83;99958.19;4978488;28;20490;-78
2022/05/04 09:01:06;;;;;;;25.83;18.52;;;;;;;17.39;66.46;99955.63;4967175;28;20035;-78
2022/05/04 09:03:33;;;;;;;28.20;19.60;;;;;;;17.40;66.44;99954.59;4984715;28;20489;-78
2022/05/04 09:06:00;;;;;;;25.52;17.10;;;;;;;17.45;66.24;99954.91;4981201;28;20053;-78
2022/05/04 09:08:58;;;;;;;27.88;17.67;;;;;;;17.34;66.63;99954.31;4960877;28;20050;-78
2022/05/04 09:11:26;;;;;;;26.50;18.33;;;;;;;17.46;66.60;99953.91;4971010;28;20066;-78
2022/05/04 09:13:54;;;;;;;24.00;17.33;;;;;;;17.40;66.20;99954.59;4982052;28;20062;-78
2022/05/04 09:16:32;;;;;;;24.80;17.60;;;;;;;17.28;65.92;99951.50;4981258;28;20050;-78
2022/05/04 09:19:10;;;;;;;28.17;17.48;;;;;;;17.31;66.62;99951.97;4966045;28;20050;-78
2022/05/04 09:21:39;;;;;;;27.95;17.52;;;;;;;17.49;65.98;99956.25;4986866;28;20136;-78
2022/05/04 09:24:06;;;;;;;24.38;17.48;;;;;;;17.48;66.24;99951.91;4967237;28;20046;-78
2022/05/04 09:26:39;;;;;;;27.70;18.83;;;;;;;17.38;66.40;99938.69;4989088;28;20062;-78
2022/05/04 09:29:06;;;;;;;23.90;18.58;;;;;;;17.41;66.55;99946.38;4962453;28;20047;-78
2022/05/04 09:31:33;;;;;;;27.98;18.80;;;;;;;17.41;66.20;99943.72;4951279;28;20045;-78
2022/05/04 09:34:02;;;;;;;22.58;17.17;;;;;;;17.48;65.55;99941.16;4979061;28;20512;-78
2022/05/04 09:44:53;;;;;;;25.80;15.70;;;;;;;17.44;65.70;99940.66;4981685;28;20382;-78
2022/05/04 09:45:12;;;;;;;25.70;17.73;;;;;;;17.45;65.35;99933.44;4960982;28;20509;-78
2022/05/04 09:47:45;;;;;;;22.20;15.70;;;;;;;17.51;65.38;99932.75;4974501;28;20051;-78
2022/05/04 09:50:13;;;;;;;24.35;17.58;;;;;;;17.58;65.70;99931.84;4949760;28;20042;-78
2022/05/04 09:52:47;;;;;;;26.90;18.27;;;;;;;17.52;66.00;99929.88;4982405;28;20712;-78
2022/05/04 09:55:23;;;;;;;23.30;16.02;;;;;;;17.44;66.01;99927.25;4978218;28;20041;-78
2022/05/04 09:57:51;;;;;;;23.95;17.30;;;;;;;17.53;66.09;99928.88;4983170;28;20133;-78
2022/05/04 10:00:21;;;;;;;22.25;16.05;;;;;;;17.50;66.15;99931.91;4966153;28;20138;-78
2022/05/04 10:02:49;;;;;;;26.02;16.42;;;;;;;17.52;66.31;99929.88;4979695;28;20060;-78
2022/05/04 10:05:16;;;;;;;28.77;18.23;;;;;;;17.54;66.79;99930.53;4997250;28;20046;-78
2022/05/04 10:07:44;;;;;;;22.58;17.23;;;;;;;17.54;66.72;99922.47;4988591;28;20056;-78
2022/05/04 10:10:14;;;;;;;27.13;16.50;;;;;;;17.52;67.04;99926.34;4981452;28;20038;-78
2022/05/04 10:12:42;;;;;;;25.88;17.25;;;;;;;17.55;66.98;99925.97;4986800;28;20050;-78
2022/05/04 10:15:15;;;;;;;24.25;17.40;;;;;;;17.51;67.07;99913.94;4987809;28;20046;-78
2022/05/04 10:17:46;;;;;;;;;;;;;;;17.44;67.08;99915.66;4968277;28;20056;-78
2022/05/04 10:20:16;;;;;;;24.17;15.85;;;;;;;17.57;66.30;99916.72;4961459;28;21689;-78
2022/05/04 10:22:53;;;;;;;24.70;16.23;;;;;;;17.57;66.24;99910.53;4999934;28;20050;-78
2022/05/04 10:25:23;;;;;;;24.48;16.60;;;;;;;17.62;66.36;99912.69;4982774;28;20420;-78
2022/05/04 10:27:50;;;;;;;26.73;15.98;;;;;;;17.65;66.19;99909.63;4960140;28;20046;-78
2022/05/04 10:30:31;;;;;;;30.48;17.63;;;;;;;17.65;66.11;99907.78;4945951;28;20089;-78
2022/05/04 10:33:05;;;;;;;30.23;19.35;;;;;;;17.70;66.34;99907.25;4976229;28;20130;-78
2022/05/04 10:35:44;;;;;;;27.23;18.38;;;;;;;17.73;66.41;99905.06;4970793;28;20394;-78
2022/05/04 10:38:15;;;;;;;26.60;18.10;;;;;;;17.66;67.01;99906.78;4967221;28;20042;-78
2022/05/04 10:40:44;;;;;;;28.95;17.98;;;;;;;17.70;67.18;99908.06;4972689;28;20046;-78
2022/05/04 10:43:18;;;;;;;25.90;18.35;;;;;;;17.83;66.62;99910.19;4972624;28;20664;-78
2022/05/04 10:45:47;;;;;;;21.80;16.42;;;;;;;17.85;66.40;99908.16;4978409;28;20061;-78
2022/05/04 10:48:20;;;;;;;27.02;18.08;;;;;;;17.85;66.53;99900.09;4974036;28;20053;-77
2022/05/04 10:51:21;;;;;;;24.65;18.35;;;;;;;17.84;66.94;99894.94;4924225;28;20515;-78
2022/05/04 10:53:50;;;;;;;25.05;17.85;;;;;;;17.84;67.02;99892.25;4866337;28;20071;-78
2022/05/04 10:56:23;;;;;;;28.65;18.13;;;;;;;17.89;67.12;99896.06;4918000;28;20063;-78
2022/05/04 10:58:49;;;;;;;33.58;20.38;;;;;;;17.93;67.13;99886.59;4934117;28;20058;-78
2022/05/04 11:01:20;;;;;;;32.83;20.58;;;;;;;17.91;67.62;99887.78;4938558;28;20059;-78
2022/05/04 11:04:11;;;;;;;27.73;18.15;;;;;;;17.87;68.31;99887.31;4908727;28;20123;-78
2022/05/04 11:06:40;;;;;;;31.17;20.90;;;;;;;17.96;67.93;99888.06;4939830;28;20038;-78
2022/05/04 11:09:09;;;;;;;28.75;19.25;;;;;;;17.92;68.71;99887.63;4924203;28;20780;-78
2022/05/04 11:11:51;;;;;;;27.05;18.90;;;;;;;17.98;68.49;99884.19;4940428;28;20046;-78
2022/05/04 11:14:22;;;;;;;26.13;19.50;;;;;;;17.94;68.76;99877.53;4948604;28;20047;-78
2022/05/04 11:16:51;;;;;;;30.08;20.63;;;;;;;17.85;68.77;99881.28;4968932;28;20047;-78
2022/05/04 11:19:18;;;;;;;25.95;19.05;;;;;;;17.86;68.70;99877.63;4967691;28;20502;-78
2022/05/04 11:21:45;;;;;;;30.38;19.88;;;;;;;17.88;69.22;99874.72;4937185;28;20051;-79
2022/05/04 11:24:14;;;;;;;33.97;21.25;;;;;;;17.89;69.30;99871.88;4943586;28;20074;-78
2022/05/04 11:26:42;;;;;;;28.30;19.30;;;;;;;17.89;68.89;99873.72;4963735;28;20085;-78
2022/05/04 11:29:11;;;;;;;32.47;20.40;;;;;;;17.99;68.76;99874.31;4964855;28;20043;-79
2022/05/04 11:31:42;;;;;;;31.88;20.45;;;;;;;18.04;68.23;99871.91;4964768;28;20055;-78
2022/05/04 11:34:09;;;;;;;33.17;21.88;;;;;;;18.13;67.85;99869.94;4972008;28;20564;-79
2022/05/04 11:36:36;;;;;;;28.08;20.67;;;;;;;18.02;68.08;99863.19;4986090;28;20050;-78
2022/05/04 11:39:03;;;;;;;28.73;18.92;;;;;;;18.01;68.10;99866.88;4981642;28;20106;-78
2022/05/04 11:41:30;;;;;;;27.33;19.40;;;;;;;17.95;68.07;99860.38;4984171;28;20050;-78
2022/05/04 11:43:58;;;;;;;25.58;19.27;;;;;;;17.97;68.11;99858.34;4986400;28;20132;-78
2022/05/04 11:46:25;;;;;;;23.48;17.17;;;;;;;18.05;67.76;99848.53;4981577;28;20050;-79
2022/05/04 11:48:55;;;;;;;25.45;17.58;;;;;;;18.09;68.13;99841.75;4989801;28;20049;-79
2022/05/04 11:51:28;;;;;;;23.92;17.08;;;;;;;18.21;68.10;99841.13;4982002;28;20093;-79
2022/05/04 11:53:54;;;;;;;24.58;17.63;;;;;;;18.20;67.36;99836.78;4929478;28;20157;-78